createdAt,value
2022-08-22T00:01:36.963Z,91.80
2022-08-22T00:06:58.488Z,92.30
2022-08-22T00:12:19.935Z,92.90
2022-08-22T00:17:41.205Z,92.90
2022-08-22T00:22:55.770Z,92.80
2022-08-22T00:28:08.283Z,93.00
2022-08-22T00:33:29.026Z,93.00
2022-08-22T00:38:43.774Z,93.10
2022-08-22T00:44:41.751Z,93.10
2022-08-22T00:50:38.180Z,93.10
2022-08-22T00:56:19.006Z,92.70
2022-08-22T01:01:32.482Z,92.60
2022-08-22T01:06:54.786Z,92.50
2022-08-22T01:12:34.487Z,92.60
2022-08-22T01:18:24.262Z,92.80
2022-08-22T01:24:24.309Z,92.80
2022-08-22T01:30:30.305Z,93.30
2022-08-22T01:36:10.783Z,94.30
2022-08-22T01:41:44.912Z,95.60
2022-08-22T01:47:00.468Z,96.50
2022-08-22T01:52:19.667Z,98.10
2022-08-22T01:57:26.161Z,99.90
2022-08-22T02:02:51.571Z,99.90
2022-08-22T02:08:04.851Z,99.90
2022-08-22T02:13:26.171Z,99.90
2022-08-22T02:18:51.534Z,99.90
2022-08-22T02:24:15.603Z,99.90
2022-08-22T02:29:30.896Z,99.90
2022-08-22T02:34:43.541Z,99.90
2022-08-22T02:39:57.043Z,99.90
2022-08-22T02:45:22.137Z,99.90
2022-08-22T02:50:39.283Z,99.90
2022-08-22T02:56:00.708Z,99.90
2022-08-22T03:01:40.926Z,99.90
2022-08-22T03:07:04.083Z,99.90
2022-08-22T03:12:23.664Z,99.90
2022-08-22T03:17:36.075Z,99.90
2022-08-22T03:22:53.247Z,99.90
2022-08-22T03:28:07.470Z,99.90
2022-08-22T03:33:21.625Z,99.90
2022-08-22T03:38:39.782Z,99.90
2022-08-22T03:44:27.268Z,99.90
2022-08-22T03:50:38.495Z,99.90
2022-08-22T03:56:44.089Z,99.90
2022-08-22T04:02:26.206Z,99.90
2022-08-22T04:08:38.287Z,99.90
2022-08-22T04:14:32.430Z,99.90
2022-08-22T04:20:08.366Z,99.90
2022-08-22T04:25:23.155Z,99.90
2022-08-22T04:30:43.743Z,99.90
2022-08-22T04:36:03.529Z,99.90
2022-08-22T04:41:16.747Z,99.90
2022-08-22T04:46:37.228Z,99.90
2022-08-22T04:51:52.174Z,99.90
2022-08-22T04:57:18.137Z,99.90
2022-08-22T05:02:27.610Z,99.90
2022-08-22T05:07:40.833Z,99.90
2022-08-22T05:12:53.961Z,99.90
2022-08-22T05:18:07.608Z,99.90
2022-08-22T05:23:20.778Z,99.90
2022-08-22T05:28:36.152Z,99.90
2022-08-22T05:33:45.847Z,99.90
2022-08-22T05:38:58.025Z,99.90
2022-08-22T05:44:04.498Z,99.90
2022-08-22T05:49:20.111Z,99.90
2022-08-22T05:54:34.638Z,99.90
2022-08-22T05:59:44.882Z,99.90
2022-08-22T06:04:55.046Z,99.90
2022-08-22T06:10:25.904Z,99.90
2022-08-22T06:15:47.786Z,99.90
2022-08-22T06:20:59.602Z,99.90
2022-08-22T06:26:20.864Z,99.90
2022-08-22T06:31:33.235Z,99.90
2022-08-22T06:36:42.401Z,99.90
2022-08-22T06:41:55.040Z,99.90
2022-08-22T06:47:05.875Z,99.90
2022-08-22T06:52:23.556Z,99.90
2022-08-22T06:57:35.989Z,99.90
2022-08-22T07:02:45.023Z,99.90
2022-08-22T07:07:51.004Z,99.90
2022-08-22T07:12:58.852Z,99.90
2022-08-22T07:18:08.238Z,98.40
2022-08-22T07:23:31.513Z,93.40
2022-08-22T07:28:51.520Z,86.30
2022-08-22T07:34:25.875Z,84.30
2022-08-22T07:39:38.790Z,81.90
2022-08-22T07:45:02.925Z,74.90
2022-08-22T07:50:14.351Z,69.00
2022-08-22T07:55:23.702Z,66.10
2022-08-22T08:00:31.528Z,62.20
2022-08-22T08:05:39.618Z,59.80
2022-08-22T08:10:44.583Z,57.70
2022-08-22T08:15:52.554Z,56.90
2022-08-22T08:21:03.442Z,55.40
2022-08-22T08:26:12.661Z,53.10
2022-08-22T08:31:26.027Z,52.90
2022-08-22T08:36:52.467Z,50.70
2022-08-22T08:42:59.458Z,48.70
2022-08-22T08:48:35.874Z,46.60
2022-08-22T08:54:20.103Z,46.00
2022-08-22T08:59:44.470Z,45.30
2022-08-22T09:05:50.243Z,44.30
2022-08-22T09:11:32.219Z,42.40
2022-08-22T09:17:02.845Z,42.60
2022-08-22T09:22:50.009Z,41.70
2022-08-22T09:28:03.057Z,41.20
2022-08-22T09:33:17.631Z,40.60
2022-08-22T09:38:49.705Z,39.60
2022-08-22T09:44:15.440Z,39.30
2022-08-22T09:49:32.891Z,38.70
2022-08-22T09:54:49.101Z,37.40
2022-08-22T10:00:22.120Z,37.10
2022-08-22T10:05:44.029Z,36.50
2022-08-22T10:11:12.838Z,36.10
2022-08-22T10:16:28.312Z,35.20
2022-08-22T10:21:43.188Z,34.80
2022-08-22T10:26:55.743Z,34.40
2022-08-22T10:32:17.586Z,34.00
2022-08-22T10:37:31.614Z,33.70
2022-08-22T10:42:47.785Z,33.50
2022-08-22T10:48:23.411Z,32.30
2022-08-22T10:53:46.470Z,32.40
2022-08-22T10:59:01.166Z,32.10
2022-08-22T11:04:42.197Z,31.90
2022-08-22T11:10:00.855Z,31.90
2022-08-22T11:15:28.313Z,31.80
2022-08-22T11:20:54.818Z,31.10
2022-08-22T11:26:30.098Z,32.70
2022-08-22T11:32:06.515Z,31.60
2022-08-22T11:37:42.962Z,30.70
2022-08-22T11:43:00.247Z,30.70
2022-08-22T11:48:22.069Z,27.80
2022-08-22T11:53:38.519Z,27.90
2022-08-22T11:58:59.735Z,28.30
2022-08-22T12:04:21.872Z,28.30
2022-08-22T12:09:42.646Z,28.00
2022-08-22T12:14:58.056Z,28.00
2022-08-22T12:20:28.351Z,28.20
2022-08-22T12:26:05.017Z,27.80
2022-08-22T12:31:31.868Z,27.90
2022-08-22T12:37:09.262Z,28.00
2022-08-22T12:42:54.509Z,28.10
2022-08-22T12:48:19.653Z,27.70
2022-08-22T12:54:14.538Z,27.80
2022-08-22T12:59:27.450Z,27.50
2022-08-22T13:04:36.614Z,26.90
2022-08-22T13:09:52.347Z,26.80
2022-08-22T13:15:03.691Z,27.20
2022-08-22T13:20:21.051Z,26.70
2022-08-22T13:25:30.786Z,27.10
2022-08-22T13:30:41.131Z,27.30
2022-08-22T13:35:51.871Z,27.80
2022-08-22T13:41:00.804Z,27.70
2022-08-22T13:46:10.960Z,29.10
2022-08-22T13:51:27.345Z,29.00
2022-08-22T13:56:50.393Z,28.40
2022-08-22T14:02:04.916Z,28.30
2022-08-22T14:07:32.670Z,28.60
2022-08-22T14:13:24.057Z,28.30
2022-08-22T14:18:35.843Z,27.90
2022-08-22T14:23:40.541Z,27.40
2022-08-22T14:28:46.812Z,27.50
2022-08-22T14:33:58.322Z,27.10
2022-08-22T14:39:11.843Z,26.70
2022-08-22T14:44:24.359Z,26.80
2022-08-22T14:49:47.864Z,26.50
2022-08-22T14:55:12.205Z,26.50
2022-08-22T15:00:32.210Z,26.30
2022-08-22T15:05:46.392Z,26.30
2022-08-22T15:11:05.237Z,26.50
2022-08-22T15:16:22.962Z,27.10
2022-08-22T15:21:32.735Z,27.80
2022-08-22T15:26:50.374Z,27.80
2022-08-22T15:32:01.451Z,27.80
2022-08-22T15:37:32.414Z,28.10
2022-08-22T15:42:42.614Z,28.20
2022-08-22T15:47:54.390Z,27.80
2022-08-22T15:53:18.146Z,27.90
2022-08-22T15:58:25.270Z,27.40
2022-08-22T16:03:35.358Z,27.30
2022-08-22T16:08:52.076Z,27.70
2022-08-22T16:14:25.246Z,27.80
2022-08-22T16:19:39.731Z,27.70
2022-08-22T16:25:10.163Z,27.60
2022-08-22T16:30:16.824Z,28.00
2022-08-22T16:36:23.766Z,28.10
2022-08-22T16:41:41.465Z,27.90
2022-08-22T16:46:48.664Z,28.60
2022-08-22T16:52:48.835Z,29.30
2022-08-22T16:58:15.525Z,31.10
2022-08-22T17:03:37.709Z,33.30
2022-08-22T17:08:58.336Z,35.50
2022-08-22T17:14:20.879Z,37.30
2022-08-22T17:19:46.587Z,38.30
2022-08-22T17:25:13.867Z,39.50
2022-08-22T17:30:30.284Z,40.60
2022-08-22T17:35:55.094Z,42.40
2022-08-22T17:41:13.078Z,42.10
2022-08-22T17:46:36.809Z,42.90
2022-08-22T17:51:52.509Z,44.10
2022-08-22T17:57:06.359Z,44.90
2022-08-22T18:02:20.272Z,45.50
2022-08-22T18:07:45.885Z,46.10
2022-08-22T18:13:06.677Z,46.60
2022-08-22T18:18:31.439Z,48.00
2022-08-22T18:23:43.945Z,50.10
2022-08-22T18:28:55.778Z,50.70
2022-08-22T18:34:15.196Z,51.60
2022-08-22T18:39:29.403Z,52.70
2022-08-22T18:44:37.602Z,53.30
2022-08-22T18:49:55.015Z,54.20
2022-08-22T18:55:40.308Z,55.00
2022-08-22T19:01:05.404Z,55.70
2022-08-22T19:06:45.937Z,56.50
2022-08-22T19:12:04.669Z,57.90
2022-08-22T19:17:55.435Z,57.80
2022-08-22T19:23:47.429Z,60.00
2022-08-22T19:28:55.640Z,61.40
2022-08-22T19:34:40.257Z,62.50
2022-08-22T19:39:56.103Z,63.90
2022-08-22T19:45:26.744Z,65.10
2022-08-22T19:50:36.649Z,65.80
2022-08-22T19:56:05.547Z,66.00
2022-08-22T20:01:46.528Z,67.40
2022-08-22T20:07:15.963Z,67.40
2022-08-22T20:20:17.725Z,71.20
2022-08-22T20:26:03.363Z,73.50
2022-08-22T20:31:33.343Z,74.90
2022-08-22T20:37:35.551Z,75.00
2022-08-22T20:43:11.626Z,76.60
2022-08-22T20:49:14.194Z,77.30
2022-08-22T20:55:39.433Z,77.60
2022-08-22T21:01:22.884Z,77.70
2022-08-22T21:07:03.303Z,77.30
2022-08-22T21:12:12.252Z,77.80
2022-08-22T21:17:24.939Z,78.50
2022-08-22T21:22:33.884Z,79.30
2022-08-22T21:27:39.816Z,79.30
2022-08-22T21:32:55.045Z,79.40
2022-08-22T21:38:02.719Z,79.90
2022-08-22T21:43:13.439Z,80.50
2022-08-22T21:48:40.639Z,81.10
2022-08-22T21:53:44.823Z,82.40
2022-08-22T21:58:50.734Z,84.00
2022-08-22T22:03:56.183Z,86.20
2022-08-22T22:09:00.346Z,89.00
2022-08-22T22:14:06.439Z,90.70
2022-08-22T22:19:10.903Z,90.80
2022-08-22T22:24:15.187Z,89.80
2022-08-22T22:29:21.072Z,88.10
2022-08-22T22:34:25.691Z,87.70
2022-08-22T22:39:30.107Z,87.90
2022-08-22T22:44:35.780Z,89.30
2022-08-22T22:49:40.326Z,90.20
2022-08-22T22:54:45.595Z,90.70
2022-08-22T22:59:51.912Z,91.20
2022-08-22T23:04:58.303Z,91.80
2022-08-22T23:10:05.067Z,93.20
2022-08-22T23:15:12.846Z,95.50
2022-08-22T23:20:17.186Z,97.60
2022-08-22T23:25:21.586Z,99.90
2022-08-22T23:30:27.276Z,99.90
2022-08-22T23:35:31.487Z,99.90
2022-08-22T23:40:35.747Z,99.90
2022-08-22T23:45:41.329Z,99.90
2022-08-22T23:50:45.699Z,99.90
2022-08-22T23:55:50.089Z,99.90
